sensor_id;sensor_type;location;lat;lon;timestamp;pressure;altitude;pressure_sealevel;temperature;humidity
13661;BME280;6903;49.480;11.102;2022-09-09T00:00:18;97583.59;;;14.70;100.00
13661;BME280;6903;49.480;11.102;2022-09-09T00:03:05;97577.22;;;14.63;100.00
13661;BME280;6903;49.480;11.102;2022-09-09T00:05:44;97580.19;;;14.60;100.00
13661;BME280;6903;49.480;11.102;2022-09-09T00:08:20;97577.88;;;14.57;100.00
13661;BME280;6903;49.480;11.102;2022-09-09T00:10:52;97577.03;;;14.56;100.00
13661;BME280;6903;49.480;11.102;2022-09-09T00:13:28;97577.34;;;14.53;100.00
13661;BME280;6903;49.480;11.102;2022-09-09T00:16:37;97568.34;;;14.46;100.00
13661;BME280;6903;49.480;11.102;2022-09-09T00:24:38;97565.84;;;14.45;100.00
13661;BME280;6903;49.480;11.102;2022-09-09T00:27:14;97568.34;;;14.46;100.00
13661;BME280;6903;49.480;11.102;2022-09-09T00:29:51;97566.00;;;14.43;100.00
13661;BME280;6903;49.480;11.102;2022-09-09T00:32:20;97566.44;;;14.39;100.00
13661;BME280;6903;49.480;11.102;2022-09-09T00:35:16;97563.66;;;14.40;100.00
13661;BME280;6903;49.480;11.102;2022-09-09T00:37:44;97562.34;;;14.44;100.00
13661;BME280;6903;49.480;11.102;2022-09-09T00:40:35;97556.53;;;14.41;100.00
13661;BME280;6903;49.480;11.102;2022-09-09T00:43:24;97557.38;;;14.41;100.00
13661;BME280;6903;49.480;11.102;2022-09-09T00:51:51;97555.41;;;14.43;100.00
13661;BME280;6903;49.480;11.102;2022-09-09T00:54:35;97560.56;;;14.45;100.00
13661;BME280;6903;49.480;11.102;2022-09-09T00:57:19;97561.88;;;14.49;100.00
13661;BME280;6903;49.480;11.102;2022-09-09T01:00:14;97560.22;;;14.48;100.00
13661;BME280;6903;49.480;11.102;2022-09-09T01:06:02;97564.16;;;14.44;100.00
13661;BME280;6903;49.480;11.102;2022-09-09T01:14:29;97575.88;;;14.33;100.00
13661;BME280;6903;49.480;11.102;2022-09-09T01:17:01;97560.84;;;14.24;100.00
13661;BME280;6903;49.480;11.102;2022-09-09T01:20:08;97563.59;;;14.14;100.00
13661;BME280;6903;49.480;11.102;2022-09-09T01:28:14;97572.84;;;14.10;100.00
13661;BME280;6903;49.480;11.102;2022-09-09T01:30:42;97569.56;;;14.16;100.00
13661;BME280;6903;49.480;11.102;2022-09-09T01:33:14;97568.56;;;14.17;100.00
13661;BME280;6903;49.480;11.102;2022-09-09T01:35:45;97569.41;;;14.18;100.00
13661;BME280;6903;49.480;11.102;2022-09-09T01:38:12;97576.25;;;14.20;100.00
13661;BME280;6903;49.480;11.102;2022-09-09T01:40:39;97576.91;;;14.22;100.00
13661;BME280;6903;49.480;11.102;2022-09-09T01:43:04;97563.50;;;14.24;100.00
13661;BME280;6903;49.480;11.102;2022-09-09T01:45:32;97560.72;;;14.26;100.00
13661;BME280;6903;49.480;11.102;2022-09-09T01:47:57;97570.88;;;14.30;100.00
13661;BME280;6903;49.480;11.102;2022-09-09T01:50:23;97560.28;;;14.30;100.00
13661;BME280;6903;49.480;11.102;2022-09-09T01:52:58;97563.00;;;14.38;100.00
13661;BME280;6903;49.480;11.102;2022-09-09T01:55:33;97559.03;;;14.42;100.00
13661;BME280;6903;49.480;11.102;2022-09-09T01:58:25;97559.56;;;14.46;100.00
13661;BME280;6903;49.480;11.102;2022-09-09T02:01:29;97558.91;;;14.52;100.00
13661;BME280;6903;49.480;11.102;2022-09-09T02:04:03;97568.56;;;14.53;100.00
13661;BME280;6903;49.480;11.102;2022-09-09T02:06:39;97558.91;;;14.52;100.00
13661;BME280;6903;49.480;11.102;2022-09-09T02:09:06;97559.13;;;14.58;100.00
13661;BME280;6903;49.480;11.102;2022-09-09T02:11:33;97561.16;;;14.64;100.00
13661;BME280;6903;49.480;11.102;2022-09-09T02:14:12;97554.09;;;14.73;100.00
13661;BME280;6903;49.480;11.102;2022-09-09T02:16:46;97555.59;;;14.75;100.00
13661;BME280;6903;49.480;11.102;2022-09-09T02:21:39;97560.81;;;14.85;100.00
13661;BME280;6903;49.480;11.102;2022-09-09T02:24:08;97559.63;;;14.87;100.00
13661;BME280;6903;49.480;11.102;2022-09-09T02:26:39;97552.88;;;14.93;100.00
13661;BME280;6903;49.480;11.102;2022-09-09T02:29:08;97559.03;;;15.01;100.00
13661;BME280;6903;49.480;11.102;2022-09-09T02:31:36;97554.22;;;14.97;100.00
13661;BME280;6903;49.480;11.102;2022-09-09T02:34:05;97552.56;;;14.96;100.00
13661;BME280;6903;49.480;11.102;2022-09-09T02:36:33;97554.06;;;14.98;100.00
13661;BME280;6903;49.480;11.102;2022-09-09T02:38:59;97544.44;;;14.97;100.00
13661;BME280;6903;49.480;11.102;2022-09-09T02:41:32;97554.22;;;14.97;100.00
13661;BME280;6903;49.480;11.102;2022-09-09T02:43:59;97556.75;;;15.06;100.00
13661;BME280;6903;49.480;11.102;2022-09-09T02:49:57;97553.16;;;15.15;100.00
13661;BME280;6903;49.480;11.102;2022-09-09T02:52:36;97551.66;;;15.21;100.00
13661;BME280;6903;49.480;11.102;2022-09-09T02:55:14;97553.81;;;15.25;100.00
13661;BME280;6903;49.480;11.102;2022-09-09T02:57:43;97562.16;;;15.30;100.00
13661;BME280;6903;49.480;11.102;2022-09-09T03:00:12;97554.06;;;15.40;100.00
13661;BME280;6903;49.480;11.102;2022-09-09T03:02:37;97549.59;;;15.40;100.00
13661;BME280;6903;49.480;11.102;2022-09-09T03:05:04;97552.72;;;15.36;100.00
13661;BME280;6903;49.480;11.102;2022-09-09T03:07:30;97553.22;;;15.31;100.00
13661;BME280;6903;49.480;11.102;2022-09-09T03:09:55;97550.88;;;15.28;100.00
13661;BME280;6903;49.480;11.102;2022-09-09T03:12:20;97546.53;;;15.27;100.00
13661;BME280;6903;49.480;11.102;2022-09-09T03:14:46;97546.53;;;15.27;100.00
13661;BME280;6903;49.480;11.102;2022-09-09T03:17:12;97550.19;;;15.26;100.00
13661;BME280;6903;49.480;11.102;2022-09-09T03:19:37;97547.38;;;15.28;100.00
13661;BME280;6903;49.480;11.102;2022-09-09T03:22:03;97558.88;;;15.36;100.00
13661;BME280;6903;49.480;11.102;2022-09-09T03:24:29;97557.56;;;15.40;100.00
13661;BME280;6903;49.480;11.102;2022-09-09T03:26:55;97551.94;;;15.43;100.00
13661;BME280;6903;49.480;11.102;2022-09-09T03:29:21;97547.78;;;15.41;100.00
13661;BME280;6903;49.480;11.102;2022-09-09T03:31:46;97552.94;;;15.42;100.00
13661;BME280;6903;49.480;11.102;2022-09-09T03:34:12;97543.91;;;15.35;100.00
13661;BME280;6903;49.480;11.102;2022-09-09T03:36:39;97553.72;;;15.35;100.00
13661;BME280;6903;49.480;11.102;2022-09-09T03:39:06;97540.06;;;15.22;100.00
13661;BME280;6903;49.480;11.102;2022-09-09T03:41:31;97543.03;;;15.19;100.00
13661;BME280;6903;49.480;11.102;2022-09-09T03:43:57;97541.19;;;15.19;100.00
13661;BME280;6903;49.480;11.102;2022-09-09T03:46:23;97538.88;;;15.16;100.00
13661;BME280;6903;49.480;11.102;2022-09-09T03:48:49;97546.69;;;15.18;100.00
13661;BME280;6903;49.480;11.102;2022-09-09T03:51:16;97544.22;;;15.24;100.00
13661;BME280;6903;49.480;11.102;2022-09-09T03:53:41;97550.19;;;15.26;100.00
13661;BME280;6903;49.480;11.102;2022-09-09T03:56:08;97538.25;;;15.30;100.00
13661;BME280;6903;49.480;11.102;2022-09-09T03:58:35;97542.78;;;15.38;100.00
13661;BME280;6903;49.480;11.102;2022-09-09T04:01:21;97544.59;;;15.37;100.00
13661;BME280;6903;49.480;11.102;2022-09-09T04:03:46;97534.50;;;15.41;100.00
13661;BME280;6903;49.480;11.102;2022-09-09T04:06:13;97541.94;;;15.37;100.00
13661;BME280;6903;49.480;11.102;2022-09-09T04:08:39;97539.59;;;15.34;100.00
13661;BME280;6903;49.480;11.102;2022-09-09T04:11:05;97541.81;;;15.39;100.00
13661;BME280;6903;49.480;11.102;2022-09-09T04:13:35;97535.84;;;15.45;100.00
13661;BME280;6903;49.480;11.102;2022-09-09T04:16:02;97541.31;;;15.43;100.00
13661;BME280;6903;49.480;11.102;2022-09-09T04:18:29;97544.16;;;15.50;100.00
13661;BME280;6903;49.480;11.102;2022-09-09T04:20:55;97542.69;;;15.55;100.00
13661;BME280;6903;49.480;11.102;2022-09-09T04:23:24;97543.38;;;15.57;100.00
13661;BME280;6903;49.480;11.102;2022-09-09T04:25:54;97542.00;;;15.53;100.00
13661;BME280;6903;49.480;11.102;2022-09-09T04:28:22;97541.50;;;15.50;100.00
13661;BME280;6903;49.480;11.102;2022-09-09T04:30:48;97551.47;;;15.56;100.00
13661;BME280;6903;49.480;11.102;2022-09-09T04:33:13;97553.31;;;15.55;100.00
13661;BME280;6903;49.480;11.102;2022-09-09T04:35:43;97550.16;;;15.60;100.00
13661;BME280;6903;49.480;11.102;2022-09-09T04:38:09;97551.66;;;15.71;100.00
13661;BME280;6903;49.480;11.102;2022-09-09T04:40:35;97541.53;;;15.66;100.00
13661;BME280;6903;49.480;11.102;2022-09-09T04:43:02;97550.00;;;15.62;100.00
13661;BME280;6903;49.480;11.102;2022-09-09T04:45:30;97547.97;;;15.47;100.00
13661;BME280;6903;49.480;11.102;2022-09-09T04:47:56;97533.28;;;15.35;100.00
13661;BME280;6903;49.480;11.102;2022-09-09T04:50:21;97546.91;;;15.32;100.00
13661;BME280;6903;49.480;11.102;2022-09-09T04:52:46;97543.53;;;15.22;100.00
13661;BME280;6903;49.480;11.102;2022-09-09T04:55:12;97540.84;;;15.14;100.00
13661;BME280;6903;49.480;11.102;2022-09-09T04:57:40;97541.16;;;15.11;100.00
13661;BME280;6903;49.480;11.102;2022-09-09T05:00:07;97549.97;;;15.12;100.00
13661;BME280;6903;49.480;11.102;2022-09-09T05:02:32;97549.50;;;15.16;100.00
13661;BME280;6903;49.480;11.102;2022-09-09T05:04:58;97551.34;;;15.24;100.00
13661;BME280;6903;49.480;11.102;2022-09-09T05:07:24;97564.19;;;15.36;100.00
13661;BME280;6903;49.480;11.102;2022-09-09T05:09:51;97554.59;;;15.43;100.00
13661;BME280;6903;49.480;11.102;2022-09-09T05:12:16;97555.94;;;15.47;100.00
13661;BME280;6903;49.480;11.102;2022-09-09T05:14:43;97562.25;;;15.54;100.00
13661;BME280;6903;49.480;11.102;2022-09-09T05:17:08;97572.91;;;15.63;100.00
13661;BME280;6903;49.480;11.102;2022-09-09T05:19:34;97564.97;;;15.71;100.00
13661;BME280;6903;49.480;11.102;2022-09-09T05:21:59;97569.81;;;15.83;100.00
13661;BME280;6903;49.480;11.102;2022-09-09T05:24:26;97572.97;;;15.95;100.00
13661;BME280;6903;49.480;11.102;2022-09-09T05:26:51;97577.50;;;16.02;100.00
13661;BME280;6903;49.480;11.102;2022-09-09T05:29:17;97584.28;;;16.05;100.00
13661;BME280;6903;49.480;11.102;2022-09-09T05:31:45;97583.31;;;16.14;100.00
13661;BME280;6903;49.480;11.102;2022-09-09T05:34:10;97579.31;;;16.18;100.00
13661;BME280;6903;49.480;11.102;2022-09-09T05:36:36;97577.34;;;16.20;100.00
13661;BME280;6903;49.480;11.102;2022-09-09T05:39:02;97583.00;;;16.17;100.00
13661;BME280;6903;49.480;11.102;2022-09-09T05:41:27;97581.31;;;16.24;100.00
13661;BME280;6903;49.480;11.102;2022-09-09T05:43:53;97576.66;;;16.26;100.00
13661;BME280;6903;49.480;11.102;2022-09-09T05:46:21;97577.84;;;16.31;100.00
13661;BME280;6903;49.480;11.102;2022-09-09T05:48:48;97576.50;;;16.35;100.00
13661;BME280;6903;49.480;11.102;2022-09-09T05:51:17;97587.16;;;16.51;100.00
13661;BME280;6903;49.480;11.102;2022-09-09T05:53:44;97591.69;;;16.59;100.00
13661;BME280;6903;49.480;11.102;2022-09-09T05:56:18;97588.16;;;16.66;100.00
13661;BME280;6903;49.480;11.102;2022-09-09T05:58:44;97590.31;;;16.71;100.00
13661;BME280;6903;49.480;11.102;2022-09-09T06:01:14;97584.31;;;16.77;100.00
13661;BME280;6903;49.480;11.102;2022-09-09T06:03:41;97582.47;;;16.85;100.00
13661;BME280;6903;49.480;11.102;2022-09-09T06:06:10;97572.66;;;16.86;100.00
13661;BME280;6903;49.480;11.102;2022-09-09T06:08:38;97585.44;;;16.90;100.00
13661;BME280;6903;49.480;11.102;2022-09-09T06:11:11;97578.31;;;16.91;100.00
13661;BME280;6903;49.480;11.102;2022-09-09T06:13:37;97581.44;;;16.86;100.00
13661;BME280;6903;49.480;11.102;2022-09-09T06:16:05;97573.47;;;16.78;100.00
13661;BME280;6903;49.480;11.102;2022-09-09T06:18:32;97578.34;;;16.67;100.00
13661;BME280;6903;49.480;11.102;2022-09-09T06:20:59;97569.03;;;16.63;100.00
13661;BME280;6903;49.480;11.102;2022-09-09T06:23:29;97585.66;;;16.65;100.00
13661;BME280;6903;49.480;11.102;2022-09-09T06:26:09;97585.31;;;16.84;100.00
13661;BME280;6903;49.480;11.102;2022-09-09T06:28:35;97588.25;;;17.05;100.00
13661;BME280;6903;49.480;11.102;2022-09-09T06:31:04;97584.88;;;17.19;100.00
13661;BME280;6903;49.480;11.102;2022-09-09T06:33:32;97582.84;;;17.29;100.00
13661;BME280;6903;49.480;11.102;2022-09-09T06:36:00;97591.16;;;17.73;100.00
13661;BME280;6903;49.480;11.102;2022-09-09T06:38:25;97578.06;;;18.16;100.00
13661;BME280;6903;49.480;11.102;2022-09-09T06:40:55;97584.16;;;18.48;100.00
13661;BME280;6903;49.480;11.102;2022-09-09T06:43:21;97585.31;;;18.68;100.00
13661;BME280;6903;49.480;11.102;2022-09-09T06:45:54;97582.53;;;18.61;100.00
13661;BME280;6903;49.480;11.102;2022-09-09T06:48:20;97593.53;;;18.81;100.00
13661;BME280;6903;49.480;11.102;2022-09-09T06:50:46;97587.47;;;19.01;100.00
13661;BME280;6903;49.480;11.102;2022-09-09T06:53:11;97591.91;;;19.23;100.00
13661;BME280;6903;49.480;11.102;2022-09-09T06:55:37;97577.84;;;19.29;100.00
13661;BME280;6903;49.480;11.102;2022-09-09T06:58:02;97599.41;;;19.28;100.00
13661;BME280;6903;49.480;11.102;2022-09-09T07:00:27;97607.16;;;19.37;100.00
13661;BME280;6903;49.480;11.102;2022-09-09T07:02:53;97605.94;;;19.69;100.00
13661;BME280;6903;49.480;11.102;2022-09-09T07:05:18;97606.44;;;20.29;100.00
13661;BME280;6903;49.480;11.102;2022-09-09T07:07:44;97611.28;;;20.40;100.00
13661;BME280;6903;49.480;11.102;2022-09-09T07:10:09;97604.13;;;20.68;100.00
13661;BME280;6903;49.480;11.102;2022-09-09T07:12:35;97611.81;;;20.99;100.00
13661;BME280;6903;49.480;11.102;2022-09-09T07:15:00;97612.31;;;21.09;100.00
13661;BME280;6903;49.480;11.102;2022-09-09T07:17:27;97615.16;;;21.35;100.00
13661;BME280;6903;49.480;11.102;2022-09-09T07:19:54;97622.84;;;21.45;100.00
13661;BME280;6903;49.480;11.102;2022-09-09T07:22:19;97619.66;;;21.62;100.00
13661;BME280;6903;49.480;11.102;2022-09-09T07:24:45;97614.06;;;21.64;100.00
13661;BME280;6903;49.480;11.102;2022-09-09T07:27:10;97618.88;;;21.75;100.00
13661;BME280;6903;49.480;11.102;2022-09-09T07:29:35;97613.88;;;21.65;100.00
13661;BME280;6903;49.480;11.102;2022-09-09T07:32:01;97620.22;;;21.51;100.00
13661;BME280;6903;49.480;11.102;2022-09-09T07:34:27;97612.94;;;21.11;100.00
13661;BME280;6903;49.480;11.102;2022-09-09T07:36:52;97621.00;;;20.90;100.00
13661;BME280;6903;49.480;11.102;2022-09-09T07:39:18;97615.88;;;20.67;100.00
13661;BME280;6903;49.480;11.102;2022-09-09T07:41:45;97621.09;;;20.54;100.00
13661;BME280;6903;49.480;11.102;2022-09-09T07:44:20;97614.84;;;20.68;100.00
13661;BME280;6903;49.480;11.102;2022-09-09T07:46:48;97618.31;;;21.11;100.00
13661;BME280;6903;49.480;11.102;2022-09-09T07:49:14;97615.72;;;21.24;100.00
13661;BME280;6903;49.480;11.102;2022-09-09T07:51:42;97616.56;;;20.97;100.00
13661;BME280;6903;49.480;11.102;2022-09-09T07:54:10;97614.34;;;20.86;100.00
13661;BME280;6903;49.480;11.102;2022-09-09T07:56:37;97619.25;;;21.31;100.00
13661;BME280;6903;49.480;11.102;2022-09-09T07:59:03;97627.09;;;22.07;100.00
13661;BME280;6903;49.480;11.102;2022-09-09T08:01:33;97616.72;;;23.04;100.00
13661;BME280;6903;49.480;11.102;2022-09-09T08:04:03;97618.09;;;23.58;100.00
13661;BME280;6903;49.480;11.102;2022-09-09T08:06:31;97625.63;;;24.07;100.00
13661;BME280;6903;49.480;11.102;2022-09-09T08:08:59;97619.97;;;24.53;100.00
13661;BME280;6903;49.480;11.102;2022-09-09T08:11:27;97622.06;;;24.82;100.00
13661;BME280;6903;49.480;11.102;2022-09-09T08:13:53;97614.84;;;25.25;97.88
13661;BME280;6903;49.480;11.102;2022-09-09T08:16:21;97631.03;;;25.68;91.47
13661;BME280;6903;49.480;11.102;2022-09-09T08:18:48;97624.97;;;25.54;91.82
13661;BME280;6903;49.480;11.102;2022-09-09T08:21:20;97625.19;;;25.89;87.77
13661;BME280;6903;49.480;11.102;2022-09-09T08:23:46;97631.28;;;26.20;85.74
13661;BME280;6903;49.480;11.102;2022-09-09T08:26:17;97621.75;;;26.48;80.10
13661;BME280;6903;49.480;11.102;2022-09-09T08:28:44;97616.91;;;26.79;79.04
13661;BME280;6903;49.480;11.102;2022-09-09T08:31:15;97619.63;;;27.32;79.90
13661;BME280;6903;49.480;11.102;2022-09-09T08:33:42;97628.16;;;27.98;76.00
13661;BME280;6903;49.480;11.102;2022-09-09T08:36:10;97628.41;;;27.85;70.35
13661;BME280;6903;49.480;11.102;2022-09-09T08:38:36;97618.94;;;28.11;69.09
13661;BME280;6903;49.480;11.102;2022-09-09T08:52:11;97624.31;;;28.95;63.14
13661;BME280;6903;49.480;11.102;2022-09-09T08:54:38;97626.59;;;29.15;61.31
13661;BME280;6903;49.480;11.102;2022-09-09T08:57:11;97622.38;;;29.40;59.95
13661;BME280;6903;49.480;11.102;2022-09-09T08:59:39;97625.00;;;29.52;59.18
13661;BME280;6903;49.480;11.102;2022-09-09T09:02:21;97619.84;;;28.72;57.44
13661;BME280;6903;49.480;11.102;2022-09-09T09:10:25;97620.94;;;29.04;60.70
13661;BME280;6903;49.480;11.102;2022-09-09T09:12:55;97623.38;;;29.18;60.19
13661;BME280;6903;49.480;11.102;2022-09-09T09:15:24;97627.13;;;29.50;58.16
13661;BME280;6903;49.480;11.102;2022-09-09T09:17:50;97627.41;;;29.15;57.69
13661;BME280;6903;49.480;11.102;2022-09-09T09:20:18;97621.69;;;28.83;57.08
13661;BME280;6903;49.480;11.102;2022-09-09T09:22:51;97616.38;;;28.32;57.45
13661;BME280;6903;49.480;11.102;2022-09-09T09:25:23;97623.63;;;28.43;57.91
13661;BME280;6903;49.480;11.102;2022-09-09T09:28:17;97612.78;;;28.71;59.27
13661;BME280;6903;49.480;11.102;2022-09-09T09:31:19;97616.06;;;29.18;55.91
13661;BME280;6903;49.480;11.102;2022-09-09T09:33:52;97608.38;;;29.65;53.76
13661;BME280;6903;49.480;11.102;2022-09-09T09:36:19;97611.00;;;30.41;53.16
13661;BME280;6903;49.480;11.102;2022-09-09T09:38:57;97602.81;;;30.68;50.69
13661;BME280;6903;49.480;11.102;2022-09-09T09:41:49;97597.25;;;30.79;50.31
13661;BME280;6903;49.480;11.102;2022-09-09T09:44:24;97587.91;;;30.75;49.17
13661;BME280;6903;49.480;11.102;2022-09-09T09:46:50;97591.50;;;31.12;49.63
13661;BME280;6903;49.480;11.102;2022-09-09T09:49:16;97591.75;;;31.37;48.60
13661;BME280;6903;49.480;11.102;2022-09-09T09:51:42;97586.56;;;31.83;48.00
13661;BME280;6903;49.480;11.102;2022-09-09T09:56:40;97587.88;;;32.37;44.88
13661;BME280;6903;49.480;11.102;2022-09-09T09:59:20;97594.25;;;32.52;44.00
13661;BME280;6903;49.480;11.102;2022-09-09T10:01:45;97592.38;;;33.03;42.79
13661;BME280;6903;49.480;11.102;2022-09-09T10:06:41;97577.34;;;33.31;39.85
13661;BME280;6903;49.480;11.102;2022-09-09T10:09:25;97589.88;;;32.61;40.55
13661;BME280;6903;49.480;11.102;2022-09-09T10:12:01;97593.16;;;32.58;41.51
13661;BME280;6903;49.480;11.102;2022-09-09T10:14:39;97589.56;;;31.81;41.41
13661;BME280;6903;49.480;11.102;2022-09-09T10:17:33;97570.00;;;30.79;41.44
13661;BME280;6903;49.480;11.102;2022-09-09T10:22:47;97573.69;;;30.68;42.84
13661;BME280;6903;49.480;11.102;2022-09-09T10:25:30;97567.13;;;30.64;44.12
13661;BME280;6903;49.480;11.102;2022-09-09T10:28:09;97558.81;;;31.12;43.66
13661;BME280;6903;49.480;11.102;2022-09-09T10:30:45;97558.03;;;31.12;40.99
13661;BME280;6903;49.480;11.102;2022-09-09T10:36:00;97560.63;;;31.33;42.30
13661;BME280;6903;49.480;11.102;2022-09-09T10:38:40;97550.63;;;31.44;41.27
13661;BME280;6903;49.480;11.102;2022-09-09T10:41:33;97553.59;;;30.42;40.84
13661;BME280;6903;49.480;11.102;2022-09-09T10:44:15;97558.94;;;29.89;43.60
13661;BME280;6903;49.480;11.102;2022-09-09T10:46:49;97552.81;;;29.77;43.95
13661;BME280;6903;49.480;11.102;2022-09-09T10:52:22;97541.06;;;29.72;46.24
13661;BME280;6903;49.480;11.102;2022-09-09T10:55:06;97550.31;;;29.54;46.98
13661;BME280;6903;49.480;11.102;2022-09-09T11:02:41;97548.38;;;28.83;48.29
13661;BME280;6903;49.480;11.102;2022-09-09T11:05:15;97548.50;;;28.72;49.22
13661;BME280;6903;49.480;11.102;2022-09-09T11:07:58;97533.75;;;28.84;49.71
13661;BME280;6903;49.480;11.102;2022-09-09T11:10:41;97550.38;;;28.88;50.41
13661;BME280;6903;49.480;11.102;2022-09-09T11:13:38;97549.38;;;28.77;51.14
13661;BME280;6903;49.480;11.102;2022-09-09T11:16:05;97550.38;;;28.43;50.92
13661;BME280;6903;49.480;11.102;2022-09-09T11:18:38;97545.34;;;28.19;51.31
13661;BME280;6903;49.480;11.102;2022-09-09T11:21:17;97556.91;;;28.14;52.13
13661;BME280;6903;49.480;11.102;2022-09-09T11:23:49;97548.00;;;28.30;52.15
13661;BME280;6903;49.480;11.102;2022-09-09T11:26:32;97541.78;;;28.46;51.47
13661;BME280;6903;49.480;11.102;2022-09-09T11:29:36;97543.31;;;28.42;50.31
13661;BME280;6903;49.480;11.102;2022-09-09T11:32:41;97540.59;;;28.70;51.18
13661;BME280;6903;49.480;11.102;2022-09-09T11:40:55;97541.25;;;29.49;47.83
13661;BME280;6903;49.480;11.102;2022-09-09T11:43:28;97539.94;;;29.51;48.05
13661;BME280;6903;49.480;11.102;2022-09-09T11:45:57;97539.00;;;29.62;47.47
13661;BME280;6903;49.480;11.102;2022-09-09T11:51:05;97525.94;;;30.02;46.19
13661;BME280;6903;49.480;11.102;2022-09-09T11:53:33;97533.66;;;29.89;46.41
13661;BME280;6903;49.480;11.102;2022-09-09T11:56:06;97532.41;;;29.75;46.80
13661;BME280;6903;49.480;11.102;2022-09-09T11:58:42;97530.47;;;29.54;46.12
13661;BME280;6903;49.480;11.102;2022-09-09T12:01:29;97522.03;;;29.34;47.48
13661;BME280;6903;49.480;11.102;2022-09-09T12:06:49;97531.34;;;29.04;48.29
13661;BME280;6903;49.480;11.102;2022-09-09T12:09:21;97530.69;;;29.14;48.57
13661;BME280;6903;49.480;11.102;2022-09-09T12:11:48;97534.81;;;28.83;47.67
13661;BME280;6903;49.480;11.102;2022-09-09T12:14:22;97521.94;;;28.57;46.48
13661;BME280;6903;49.480;11.102;2022-09-09T12:16:48;97522.28;;;28.33;47.09
13661;BME280;6903;49.480;11.102;2022-09-09T12:19:18;97516.16;;;28.26;47.66
13661;BME280;6903;49.480;11.102;2022-09-09T12:30:02;97507.50;;;27.84;47.42
13661;BME280;6903;49.480;11.102;2022-09-09T12:32:28;97504.22;;;28.10;46.38
13661;BME280;6903;49.480;11.102;2022-09-09T12:37:50;97500.22;;;29.07;42.25
13661;BME280;6903;49.480;11.102;2022-09-09T12:40:26;97501.66;;;29.15;40.98
13661;BME280;6903;49.480;11.102;2022-09-09T12:42:52;97501.34;;;29.49;40.98
13661;BME280;6903;49.480;11.102;2022-09-09T12:45:20;97505.44;;;29.30;40.92
13661;BME280;6903;49.480;11.102;2022-09-09T12:48:06;97497.59;;;28.62;40.44
13661;BME280;6903;49.480;11.102;2022-09-09T12:50:36;97493.75;;;28.47;42.06
13661;BME280;6903;49.480;11.102;2022-09-09T12:53:11;97489.09;;;28.75;42.53
13661;BME280;6903;49.480;11.102;2022-09-09T12:55:49;97494.94;;;28.67;42.79
13661;BME280;6903;49.480;11.102;2022-09-09T12:58:17;97490.88;;;28.20;43.96
13661;BME280;6903;49.480;11.102;2022-09-09T13:00:54;97494.72;;;28.08;44.40
13661;BME280;6903;49.480;11.102;2022-09-09T13:03:23;97499.13;;;27.86;45.43
13661;BME280;6903;49.480;11.102;2022-09-09T13:05:50;97518.81;;;27.81;46.60
13661;BME280;6903;49.480;11.102;2022-09-09T13:08:16;97536.00;;;27.35;48.00
13661;BME280;6903;49.480;11.102;2022-09-09T13:10:55;97541.22;;;26.50;53.78
13661;BME280;6903;49.480;11.102;2022-09-09T13:13:38;97540.63;;;26.18;57.79
13661;BME280;6903;49.480;11.102;2022-09-09T13:16:05;97536.16;;;26.41;59.46
13661;BME280;6903;49.480;11.102;2022-09-09T13:18:34;97536.59;;;26.38;60.48
13661;BME280;6903;49.480;11.102;2022-09-09T13:21:00;97541.72;;;25.99;60.22
13661;BME280;6903;49.480;11.102;2022-09-09T13:23:31;97542.88;;;25.73;61.17
13661;BME280;6903;49.480;11.102;2022-09-09T13:26:05;97538.09;;;25.75;61.59
13661;BME280;6903;49.480;11.102;2022-09-09T13:28:31;97528.41;;;25.68;62.98
13661;BME280;6903;49.480;11.102;2022-09-09T13:31:04;97523.59;;;25.70;63.87
13661;BME280;6903;49.480;11.102;2022-09-09T13:33:38;97512.53;;;25.89;65.86
13661;BME280;6903;49.480;11.102;2022-09-09T13:36:07;97511.22;;;25.80;65.13
13661;BME280;6903;49.480;11.102;2022-09-09T13:38:36;97504.59;;;25.94;65.65
13661;BME280;6903;49.480;11.102;2022-09-09T13:41:05;97504.66;;;26.06;66.18
13661;BME280;6903;49.480;11.102;2022-09-09T13:43:36;97504.06;;;26.04;65.91
13661;BME280;6903;49.480;11.102;2022-09-09T13:46:04;97492.66;;;25.84;68.22
13661;BME280;6903;49.480;11.102;2022-09-09T13:48:54;97489.94;;;25.72;71.10
13661;BME280;6903;49.480;11.102;2022-09-09T13:51:35;97496.69;;;25.45;71.34
13661;BME280;6903;49.480;11.102;2022-09-09T13:54:05;97500.53;;;25.38;70.96
13661;BME280;6903;49.480;11.102;2022-09-09T13:56:32;97506.47;;;25.64;70.48
13661;BME280;6903;49.480;11.102;2022-09-09T13:58:58;97501.53;;;25.73;70.56
13661;BME280;6903;49.480;11.102;2022-09-09T14:01:23;97492.34;;;25.62;69.95
13661;BME280;6903;49.480;11.102;2022-09-09T14:03:48;97490.25;;;25.64;69.50
13661;BME280;6903;49.480;11.102;2022-09-09T14:06:14;97490.16;;;25.71;68.62
13661;BME280;6903;49.480;11.102;2022-09-09T14:08:39;97491.88;;;25.65;67.13
13661;BME280;6903;49.480;11.102;2022-09-09T14:11:05;97481.69;;;25.67;65.38
13661;BME280;6903;49.480;11.102;2022-09-09T14:13:32;97487.31;;;25.66;63.40
13661;BME280;6903;49.480;11.102;2022-09-09T14:15:57;97490.69;;;25.61;61.31
13661;BME280;6903;49.480;11.102;2022-09-09T14:18:22;97489.19;;;25.47;60.47
13661;BME280;6903;49.480;11.102;2022-09-09T14:20:48;97504.69;;;25.40;60.48
13661;BME280;6903;49.480;11.102;2022-09-09T14:23:15;97506.09;;;25.43;60.95
13661;BME280;6903;49.480;11.102;2022-09-09T14:25:42;97504.06;;;25.56;61.49
13661;BME280;6903;49.480;11.102;2022-09-09T14:28:11;97504.59;;;25.47;61.56
13661;BME280;6903;49.480;11.102;2022-09-09T14:30:39;97507.50;;;25.63;61.55
13661;BME280;6903;49.480;11.102;2022-09-09T14:33:05;97503.88;;;25.33;62.25
13661;BME280;6903;49.480;11.102;2022-09-09T14:35:30;97507.38;;;25.40;64.18
13661;BME280;6903;49.480;11.102;2022-09-09T14:37:56;97504.63;;;25.58;65.00
13661;BME280;6903;49.480;11.102;2022-09-09T14:40:21;97511.03;;;25.64;65.04
13661;BME280;6903;49.480;11.102;2022-09-09T14:42:46;97521.31;;;25.37;65.00